createdAt,value
2018-07-19T00:01:07.497Z,99249.88
2018-07-19T00:03:35.583Z,99236.06
2018-07-19T00:06:03.648Z,99245.11
2018-07-19T00:08:31.998Z,99250.69
2018-07-19T00:11:00.085Z,99250.06
2018-07-19T00:13:28.171Z,99244.92
2018-07-19T00:15:56.224Z,99237.34
2018-07-19T00:18:25.670Z,99246.70
2018-07-19T00:20:54.482Z,99247.10
2018-07-19T00:23:23.122Z,99246.80
2018-07-19T00:25:51.361Z,99243.98
2018-07-19T00:28:19.631Z,99237.23
2018-07-19T00:30:48.498Z,99236.78
2018-07-19T00:33:16.602Z,99234.02
2018-07-19T00:35:44.686Z,99248.83
2018-07-19T00:38:13.297Z,99248.95
2018-07-19T00:40:41.432Z,99242.19
2018-07-19T00:43:09.639Z,99239.90
2018-07-19T00:45:40.979Z,99240.55
2018-07-19T00:48:09.476Z,99238.54
2018-07-19T00:50:38.055Z,99232.55
2018-07-19T00:53:06.425Z,99237.81
2018-07-19T00:55:34.511Z,99237.22
2018-07-19T00:58:04.571Z,99224.94
2018-07-19T01:00:32.696Z,99238.84
2018-07-19T01:03:00.802Z,99239.37
2018-07-19T01:05:29.186Z,99233.75
2018-07-19T01:07:57.218Z,99236.59
2018-07-19T01:10:25.521Z,99237.13
2018-07-19T01:12:54.598Z,99234.34
2018-07-19T01:15:23.348Z,99239.23
2018-07-19T01:17:52.226Z,99234.91
2018-07-19T01:20:20.391Z,99240.83
2018-07-19T01:22:48.730Z,99241.73
2018-07-19T01:25:17.150Z,99209.79
2018-07-19T01:27:47.270Z,99260.18
2018-07-19T01:30:15.660Z,99245.89
2018-07-19T01:32:43.771Z,99245.89
2018-07-19T01:35:13.361Z,99243.11
2018-07-19T01:37:42.347Z,99249.90
2018-07-19T01:40:12.133Z,99160.58
2018-07-19T01:42:41.318Z,99247.39
2018-07-19T01:45:10.437Z,99246.16
2018-07-19T01:47:39.444Z,99244.61
2018-07-19T01:50:09.161Z,99242.22
2018-07-19T01:52:38.011Z,99247.21
2018-07-19T01:55:07.230Z,99255.68
2018-07-19T01:57:35.633Z,99252.51
2018-07-19T02:00:04.732Z,99254.83
2018-07-19T02:02:33.469Z,99252.53
2018-07-19T02:05:01.678Z,99258.66
2018-07-19T02:07:30.244Z,99249.86
2018-07-19T02:09:58.875Z,99255.89
2018-07-19T02:12:26.966Z,99254.87
2018-07-19T02:14:55.435Z,99243.59
2018-07-19T02:17:24.129Z,99267.58
2018-07-19T02:19:52.665Z,99258.94
2018-07-19T02:22:21.029Z,99258.94
2018-07-19T02:24:49.962Z,99259.09
2018-07-19T02:27:18.355Z,99261.27
2018-07-19T02:29:46.704Z,99261.05
2018-07-19T02:32:15.317Z,99265.12
2018-07-19T02:34:43.743Z,99268.97
2018-07-19T02:37:12.343Z,99267.07
2018-07-19T02:39:40.737Z,99227.98
2018-07-19T02:42:09.196Z,99262.48
2018-07-19T02:44:37.777Z,99263.66
2018-07-19T02:47:06.302Z,99236.53
2018-07-19T02:49:36.729Z,99266.10
2018-07-19T02:52:06.127Z,99268.05
2018-07-19T02:54:36.630Z,99270.46
2018-07-19T02:57:05.339Z,99268.58
2018-07-19T02:59:33.777Z,99268.20
2018-07-19T03:02:02.612Z,99269.48
2018-07-19T03:04:31.083Z,99261.08
2018-07-19T03:06:59.707Z,99264.78
2018-07-19T03:09:28.037Z,99266.44
2018-07-19T03:11:56.969Z,99264.80
2018-07-19T03:14:25.110Z,99261.98
2018-07-19T03:16:53.800Z,99263.02
2018-07-19T03:19:22.706Z,99259.72
2018-07-19T03:21:51.311Z,99264.58
2018-07-19T03:24:19.844Z,99271.98
2018-07-19T03:26:48.378Z,99270.80
2018-07-19T03:29:16.588Z,99269.16
2018-07-19T03:31:44.652Z,99275.02
2018-07-19T03:34:13.303Z,99270.58
2018-07-19T03:36:41.422Z,99274.39
2018-07-19T03:39:10.691Z,99277.98
2018-07-19T03:41:38.810Z,99281.30
2018-07-19T03:44:07.833Z,99249.92
2018-07-19T03:46:36.311Z,99285.50
2018-07-19T03:49:05.031Z,99279.02
2018-07-19T03:51:33.255Z,99282.20
2018-07-19T03:54:01.603Z,99285.52
2018-07-19T03:56:30.281Z,99289.36
2018-07-19T03:58:59.541Z,99285.52
2018-07-19T04:01:27.934Z,99282.45
2018-07-19T04:03:56.278Z,99288.45
2018-07-19T04:06:25.385Z,99288.97
2018-07-19T04:08:53.857Z,99295.73
2018-07-19T04:11:24.210Z,99281.55
2018-07-19T04:13:53.334Z,99290.63
2018-07-19T04:16:21.830Z,99289.49
2018-07-19T04:18:50.526Z,99293.95
2018-07-19T04:21:19.287Z,99278.91
2018-07-19T04:23:48.163Z,99287.45
2018-07-19T04:26:16.593Z,99303.13
2018-07-19T04:28:45.089Z,99294.83
2018-07-19T04:31:13.539Z,99299.81
2018-07-19T04:33:41.894Z,99303.12
2018-07-19T04:36:10.995Z,99292.16
2018-07-19T04:38:39.186Z,99301.47
2018-07-19T04:41:07.741Z,99292.41
2018-07-19T04:43:36.026Z,99298.80
2018-07-19T04:46:04.755Z,99303.02
2018-07-19T04:48:33.290Z,99308.48
2018-07-19T04:51:01.767Z,99308.49
2018-07-19T04:53:30.015Z,99307.97
2018-07-19T04:55:58.352Z,99306.45
2018-07-19T04:58:26.807Z,99315.64
2018-07-19T05:00:55.340Z,99304.78
2018-07-19T05:03:24.201Z,99311.55
2018-07-19T05:05:52.350Z,99316.64
2018-07-19T05:08:20.927Z,99316.13
2018-07-19T05:10:49.271Z,99314.85
2018-07-19T05:13:18.472Z,99269.05
2018-07-19T05:15:48.463Z,99310.16
2018-07-19T05:18:17.670Z,99308.49
2018-07-19T05:20:46.054Z,99313.98
2018-07-19T05:23:15.506Z,99310.38
2018-07-19T05:25:44.133Z,99307.83
2018-07-19T05:28:12.203Z,99312.03
2018-07-19T05:30:40.678Z,99309.23
2018-07-19T05:33:09.043Z,99304.89
2018-07-19T05:35:37.264Z,99306.70
2018-07-19T05:38:05.587Z,99309.73
2018-07-19T05:40:34.318Z,99274.12
2018-07-19T05:43:03.058Z,99306.13
2018-07-19T05:45:31.395Z,99274.50
2018-07-19T05:47:59.802Z,99300.87
2018-07-19T05:50:28.568Z,99296.51
2018-07-19T05:52:56.845Z,99284.73
2018-07-19T05:55:25.730Z,99300.28
2018-07-19T05:57:53.931Z,99295.39
2018-07-19T06:00:22.083Z,99296.52
2018-07-19T06:02:50.449Z,99297.25
2018-07-19T06:05:18.904Z,99290.03
2018-07-19T06:07:47.464Z,99291.92
2018-07-19T06:10:15.951Z,99303.62
2018-07-19T06:12:44.114Z,99281.99
2018-07-19T06:15:12.189Z,99297.91
2018-07-19T06:17:40.609Z,99317.86
2018-07-19T06:20:09.146Z,99300.78
2018-07-19T06:22:37.563Z,99300.86
2018-07-19T06:25:06.052Z,99303.53
2018-07-19T06:27:34.730Z,99294.74
2018-07-19T06:30:03.599Z,99299.78
2018-07-19T06:32:31.715Z,99301.36
2018-07-19T06:34:59.816Z,99299.00
2018-07-19T06:37:28.019Z,99300.81
2018-07-19T06:39:56.477Z,99293.73
2018-07-19T06:42:25.096Z,99290.58
2018-07-19T06:44:53.214Z,99292.16
2018-07-19T06:47:21.366Z,99290.88
2018-07-19T06:49:49.555Z,99295.95
2018-07-19T06:52:17.879Z,99284.08
2018-07-19T06:54:46.912Z,99289.53
2018-07-19T06:57:15.042Z,99287.88
2018-07-19T06:59:43.141Z,99278.63
2018-07-19T07:02:11.638Z,99290.34
2018-07-19T07:04:39.772Z,99294.19
2018-07-19T07:07:08.401Z,99291.98
2018-07-19T07:09:36.687Z,99291.04
2018-07-19T07:12:05.463Z,99289.32
2018-07-19T07:14:34.022Z,99284.37
2018-07-19T07:17:02.333Z,99285.19
2018-07-19T07:19:30.462Z,99253.91
2018-07-19T07:21:58.741Z,99286.41
2018-07-19T07:24:27.072Z,99284.45
2018-07-19T07:26:55.836Z,99288.77
2018-07-19T07:29:24.084Z,99282.88
2018-07-19T07:31:52.484Z,99285.85
2018-07-19T07:34:21.030Z,99278.42
2018-07-19T07:36:49.132Z,99241.88
2018-07-19T07:39:17.739Z,99276.47
2018-07-19T07:41:45.949Z,99275.91
2018-07-19T07:44:14.628Z,99270.47
2018-07-19T07:46:43.134Z,99272.95
2018-07-19T07:49:12.718Z,99086.48
2018-07-19T07:51:41.075Z,99270.98
2018-07-19T07:54:09.206Z,99271.22
2018-07-19T07:56:37.316Z,99271.06
2018-07-19T07:59:05.826Z,99275.45
2018-07-19T08:01:33.971Z,99269.55
2018-07-19T08:04:02.156Z,99267.98
2018-07-19T08:06:30.381Z,99267.95
2018-07-19T08:08:58.569Z,99270.54
2018-07-19T08:11:27.117Z,99270.98
2018-07-19T08:13:55.253Z,99260.96
2018-07-19T08:16:24.320Z,99257.75
2018-07-19T08:18:53.253Z,99261.42
2018-07-19T08:21:21.629Z,99263.52
2018-07-19T08:23:49.700Z,99267.30
2018-07-19T08:26:17.750Z,99266.61
2018-07-19T08:28:46.002Z,99266.91
2018-07-19T08:31:14.816Z,99265.51
2018-07-19T08:33:48.641Z,99142.81
2018-07-19T08:36:18.342Z,99272.80
2018-07-19T08:38:46.876Z,99274.76
2018-07-19T08:41:14.929Z,99277.25
2018-07-19T08:43:43.707Z,99244.94
2018-07-19T08:46:12.613Z,99274.62
2018-07-19T08:48:40.858Z,99274.94
2018-07-19T08:51:09.832Z,99276.18
2018-07-19T08:53:38.375Z,99270.23
2018-07-19T08:56:07.806Z,99186.66
2018-07-19T08:58:36.337Z,99283.52
2018-07-19T09:01:05.013Z,99279.45
2018-07-19T09:03:33.754Z,99277.77
2018-07-19T09:06:01.975Z,99279.78
2018-07-19T09:08:30.214Z,99273.92
2018-07-19T09:10:58.893Z,99257.13
2018-07-19T09:13:28.791Z,99136.19
2018-07-19T09:15:57.723Z,99132.02
2018-07-19T09:18:26.194Z,99267.25
2018-07-19T09:20:56.133Z,99279.03
2018-07-19T09:23:24.749Z,99281.88
2018-07-19T09:25:53.226Z,99274.34
2018-07-19T09:28:21.918Z,99279.89
2018-07-19T09:30:52.094Z,99218.17
2018-07-19T09:33:20.989Z,99270.63
2018-07-19T09:35:49.651Z,99270.03
2018-07-19T09:38:18.224Z,99253.95
2018-07-19T09:40:46.547Z,99259.23
2018-07-19T09:43:15.495Z,99276.79
2018-07-19T09:45:45.763Z,99266.18
2018-07-19T09:48:14.953Z,99264.33
2018-07-19T09:50:43.415Z,99268.64
2018-07-19T09:53:11.842Z,99270.52
2018-07-19T09:55:40.727Z,99266.23
2018-07-19T09:58:08.937Z,99266.84
2018-07-19T10:00:42.697Z,99262.16
2018-07-19T10:03:11.852Z,99262.75
2018-07-19T10:05:41.035Z,99262.35
2018-07-19T10:08:09.328Z,99259.11
2018-07-19T10:10:37.704Z,99263.96
2018-07-19T10:13:06.249Z,99236.17
2018-07-19T10:15:34.666Z,99255.28
2018-07-19T10:18:04.651Z,99252.55
2018-07-19T10:20:34.038Z,99253.67
2018-07-19T10:23:02.867Z,99258.91
2018-07-19T10:25:31.173Z,99218.33
2018-07-19T10:27:59.727Z,99249.92
2018-07-19T10:30:29.059Z,99250.85
2018-07-19T10:32:59.444Z,99252.02
2018-07-19T10:35:29.479Z,99247.45
2018-07-19T10:37:58.327Z,99237.75
2018-07-19T10:40:28.215Z,99249.84
2018-07-19T10:42:58.749Z,99243.52
2018-07-19T10:45:30.074Z,99244.08
2018-07-19T10:47:58.571Z,99257.42
2018-07-19T10:50:27.033Z,99243.53
2018-07-19T10:52:55.621Z,99243.78
2018-07-19T10:55:26.588Z,99185.17
2018-07-19T10:57:56.447Z,99137.23
2018-07-19T11:00:27.052Z,99236.06
2018-07-19T11:03:00.121Z,99233.48
2018-07-19T11:05:30.631Z,99229.45
2018-07-19T11:08:07.281Z,99237.14
2018-07-19T11:10:35.862Z,99232.86
2018-07-19T11:13:06.736Z,99233.34
2018-07-19T11:15:39.312Z,99229.86
2018-07-19T11:18:08.180Z,99164.11
2018-07-19T11:20:36.903Z,99222.14
2018-07-19T11:23:06.759Z,99212.25
2018-07-19T11:25:35.513Z,99208.83
2018-07-19T11:28:04.363Z,99210.13
2018-07-19T11:30:36.036Z,99215.64
2018-07-19T11:33:04.838Z,99207.51
2018-07-19T11:35:33.464Z,99212.92
2018-07-19T11:38:01.708Z,99189.11
2018-07-19T11:40:29.914Z,99171.83
2018-07-19T11:42:58.215Z,99209.70
2018-07-19T11:45:26.370Z,99207.36
2018-07-19T11:47:54.939Z,99200.32
2018-07-19T11:50:23.039Z,99202.80
2018-07-19T11:52:51.538Z,99195.20
2018-07-19T11:55:22.331Z,99190.22
2018-07-19T11:57:50.483Z,99185.58
2018-07-19T12:00:23.538Z,99190.06
2018-07-19T12:02:52.559Z,99183.59
2018-07-19T12:05:20.850Z,99178.45
2018-07-19T12:07:49.339Z,99177.95
2018-07-19T12:10:17.556Z,99178.98
2018-07-19T12:12:45.715Z,99175.72
2018-07-19T12:15:14.150Z,99172.83
2018-07-19T12:17:42.326Z,99175.23
2018-07-19T12:20:12.702Z,99169.25
2018-07-19T12:22:43.777Z,99165.26
2018-07-19T12:25:12.781Z,99161.51
2018-07-19T12:27:46.071Z,99164.80
2018-07-19T12:30:19.419Z,99159.22
2018-07-19T12:32:51.744Z,99156.27
2018-07-19T12:35:24.043Z,99139.86
2018-07-19T12:38:15.723Z,99153.94
2018-07-19T12:40:44.010Z,99145.47
2018-07-19T12:43:19.657Z,99149.52
2018-07-19T12:45:48.063Z,99149.62
2018-07-19T12:48:19.082Z,99142.27
2018-07-19T12:50:47.155Z,99142.63
2018-07-19T12:53:15.629Z,99137.71
2018-07-19T12:55:43.703Z,99140.67
2018-07-19T12:58:11.804Z,99138.98
2018-07-19T13:00:40.113Z,99140.77
2018-07-19T13:03:08.778Z,99133.30
2018-07-19T13:05:37.149Z,99126.12
2018-07-19T13:08:05.555Z,99127.29
2018-07-19T13:10:33.891Z,99137.63
2018-07-19T13:13:02.690Z,99137.63
2018-07-19T13:15:31.272Z,99131.24
2018-07-19T13:17:59.548Z,99137.29
2018-07-19T13:20:28.099Z,99120.48
2018-07-19T13:22:56.197Z,99131.45
2018-07-19T13:25:24.420Z,99129.47
2018-07-19T13:27:55.419Z,99130.05
2018-07-19T13:30:25.071Z,99116.73
2018-07-19T13:32:53.476Z,99120.59
2018-07-19T13:35:21.726Z,99127.32
2018-07-19T13:37:50.963Z,99107.03
2018-07-19T13:40:20.480Z,99118.94
2018-07-19T13:42:49.912Z,99121.09
2018-07-19T13:45:18.556Z,99117.16
2018-07-19T13:47:47.259Z,99107.45
2018-07-19T13:50:15.711Z,99104.81
2018-07-19T13:52:56.453Z,99105.42
2018-07-19T13:55:26.476Z,99105.97
2018-07-19T13:57:54.737Z,99104.26
2018-07-19T14:00:28.000Z,99104.48
2018-07-19T14:02:57.399Z,99123.21
2018-07-19T14:05:25.692Z,99094.02
2018-07-19T14:07:53.982Z,99096.18
2018-07-19T14:10:22.830Z,99102.80
2018-07-19T14:12:51.168Z,99101.53
2018-07-19T14:17:57.012Z,99078.52
2018-07-19T14:23:02.950Z,99089.74
2018-07-19T14:25:36.563Z,99084.86
2018-07-19T14:28:04.756Z,99074.86
2018-07-19T14:30:33.378Z,99084.95
2018-07-19T14:33:02.754Z,99078.98
2018-07-19T14:35:34.558Z,99079.31
2018-07-19T14:38:06.094Z,99084.45
2018-07-19T14:40:35.044Z,99083.21
2018-07-19T14:43:03.671Z,99064.95
2018-07-19T14:45:37.902Z,99075.09
2018-07-19T14:48:06.582Z,99077.75
2018-07-19T14:50:38.766Z,99067.96
2018-07-19T14:53:11.301Z,99068.85
2018-07-19T14:55:41.258Z,99078.74
2018-07-19T14:58:10.207Z,99074.08
2018-07-19T15:00:38.911Z,99068.47
2018-07-19T15:03:14.089Z,99064.66
2018-07-19T15:05:47.791Z,99059.07
2018-07-19T15:08:19.395Z,99011.75
2018-07-19T15:10:48.581Z,99048.66
2018-07-19T15:13:19.225Z,99061.70
2018-07-19T15:15:49.733Z,99050.27
2018-07-19T15:18:20.041Z,99052.84
2018-07-19T15:21:01.759Z,99028.27
2018-07-19T15:26:20.775Z,99051.37
2018-07-19T15:28:55.854Z,99035.44
2018-07-19T15:34:20.576Z,99028.56
2018-07-19T15:36:50.427Z,98999.08
2018-07-19T15:39:33.260Z,99006.50
2018-07-19T15:42:10.064Z,99021.45
2018-07-19T15:44:39.864Z,99011.14
2018-07-19T15:47:15.585Z,99029.69
2018-07-19T15:49:45.267Z,99028.27
2018-07-19T15:52:25.933Z,98989.63
2018-07-19T15:58:00.209Z,99031.17
2018-07-19T16:00:33.588Z,99014.99
2018-07-19T16:03:08.815Z,99009.87
2018-07-19T16:05:37.731Z,99031.72
2018-07-19T16:08:06.423Z,99013.30
2018-07-19T16:10:35.664Z,99030.94
2018-07-19T16:13:06.061Z,99022.98
2018-07-19T16:15:35.279Z,99018.71
2018-07-19T16:18:04.486Z,99025.12
2018-07-19T16:20:33.729Z,99010.88
2018-07-19T16:23:02.562Z,99017.07
2018-07-19T16:25:31.147Z,99012.14
2018-07-19T16:27:59.282Z,99009.76
2018-07-19T16:30:29.168Z,98982.41
2018-07-19T16:32:58.228Z,99008.59
2018-07-19T16:35:28.406Z,99021.84
2018-07-19T16:37:56.643Z,99013.18
2018-07-19T16:40:24.982Z,99013.26
2018-07-19T16:42:53.122Z,99004.80
2018-07-19T16:45:21.810Z,99006.31
2018-07-19T16:47:50.277Z,99014.52
2018-07-19T16:50:18.530Z,99009.82
2018-07-19T16:52:47.156Z,99010.83
2018-07-19T16:55:15.826Z,99003.95
2018-07-19T16:57:44.386Z,99008.53
2018-07-19T17:00:12.882Z,99000.33
2018-07-19T17:02:41.286Z,99005.22
2018-07-19T17:05:10.415Z,99009.53
2018-07-19T17:07:40.385Z,99000.17
2018-07-19T17:10:09.027Z,99002.73
2018-07-19T17:12:37.548Z,99000.97
2018-07-19T17:15:05.990Z,99007.19
2018-07-19T17:17:36.507Z,99000.23
2018-07-19T17:20:05.156Z,99004.77
2018-07-19T17:22:33.273Z,99005.01
2018-07-19T17:25:01.784Z,98992.33
2018-07-19T17:27:30.216Z,99000.75
2018-07-19T17:30:00.382Z,99002.25
2018-07-19T17:32:29.503Z,99003.70
2018-07-19T17:34:57.964Z,99009.16
2018-07-19T17:37:26.366Z,99008.20
2018-07-19T17:39:56.304Z,99010.89
2018-07-19T17:42:25.345Z,99029.15
2018-07-19T17:44:54.078Z,99005.46
2018-07-19T17:49:57.045Z,99011.06
2018-07-19T17:52:25.969Z,99007.14
2018-07-19T17:54:54.796Z,99013.50
2018-07-19T17:57:24.493Z,98996.25
2018-07-19T17:59:55.663Z,98998.69
2018-07-19T18:02:26.663Z,99017.97
2018-07-19T18:04:55.419Z,99007.28
2018-07-19T18:07:24.085Z,98999.08
2018-07-19T18:09:52.321Z,99010.89
2018-07-19T18:12:20.643Z,99015.86
2018-07-19T18:14:49.743Z,99014.30
2018-07-19T18:17:18.363Z,99016.16
2018-07-19T18:19:46.592Z,99016.38
2018-07-19T18:22:14.932Z,99043.13
2018-07-19T18:24:43.418Z,99011.03
2018-07-19T18:27:11.651Z,99021.80
2018-07-19T18:29:40.161Z,99007.87
2018-07-19T18:32:08.312Z,99036.89
2018-07-19T18:34:36.760Z,99014.99
2018-07-19T18:37:05.517Z,99017.61
2018-07-19T18:39:33.694Z,99017.86
2018-07-19T18:42:02.332Z,99013.49
2018-07-19T18:44:34.906Z,99019.69
2018-07-19T18:47:08.921Z,99012.83
2018-07-19T18:49:40.200Z,99009.81
2018-07-19T18:52:29.354Z,98863.39
2018-07-19T18:54:58.761Z,98958.00
2018-07-19T18:57:26.942Z,99010.92
2018-07-19T18:59:55.440Z,99011.69
2018-07-19T19:02:24.530Z,99010.91
2018-07-19T19:04:53.273Z,99016.77
2018-07-19T19:07:22.745Z,99014.09
2018-07-19T19:09:53.115Z,99010.59
2018-07-19T19:12:21.513Z,99010.06
2018-07-19T19:14:49.875Z,98998.17
2018-07-19T19:17:23.511Z,99015.69
2018-07-19T19:19:51.806Z,99021.17
2018-07-19T19:22:20.804Z,99023.03
2018-07-19T19:24:48.919Z,98986.27
2018-07-19T19:27:17.070Z,99018.20
2018-07-19T19:29:46.631Z,99021.84
2018-07-19T19:32:15.365Z,99024.52
2018-07-19T19:34:43.530Z,99028.14
2018-07-19T19:37:11.746Z,99008.24
2018-07-19T19:39:40.263Z,99021.85
2018-07-19T19:42:09.210Z,99023.94
2018-07-19T19:44:37.361Z,99029.20
2018-07-19T19:47:06.359Z,99037.74
2018-07-19T19:49:37.332Z,99042.36
2018-07-19T19:52:09.208Z,99034.89
2018-07-19T19:54:37.951Z,99050.19
2018-07-19T19:57:06.838Z,99023.00
2018-07-19T19:59:37.508Z,99044.59
2018-07-19T20:02:07.947Z,99043.54
2018-07-19T20:04:37.237Z,99038.66
2018-07-19T20:07:06.099Z,99052.70
2018-07-19T20:09:35.222Z,99041.00
2018-07-19T20:12:04.008Z,99059.76
2018-07-19T20:14:32.271Z,99045.50
2018-07-19T20:17:00.462Z,99060.27
2018-07-19T20:19:29.203Z,99062.95
2018-07-19T20:21:58.572Z,99060.22
2018-07-19T20:24:28.708Z,99063.37
2018-07-19T20:26:56.999Z,99045.00
2018-07-19T20:29:27.427Z,99076.89
2018-07-19T20:31:55.631Z,99076.17
2018-07-19T20:34:23.732Z,99074.94
2018-07-19T20:36:51.830Z,99069.73
2018-07-19T20:39:20.438Z,99077.70
2018-07-19T20:41:49.083Z,99077.22
2018-07-19T20:44:18.513Z,99083.91
2018-07-19T20:46:46.754Z,99079.23
2018-07-19T20:49:15.008Z,99081.39
2018-07-19T20:51:43.108Z,99081.20
2018-07-19T20:54:11.617Z,99086.78
2018-07-19T20:56:39.972Z,99085.33
2018-07-19T20:59:08.175Z,99081.27
2018-07-19T21:01:37.089Z,99030.29
2018-07-19T21:04:06.649Z,99090.00
2018-07-19T21:06:35.769Z,99084.76
2018-07-19T21:09:10.886Z,99078.31
2018-07-19T21:11:39.428Z,99072.01
2018-07-19T21:14:08.390Z,99087.28
2018-07-19T21:16:38.807Z,99097.02
2018-07-19T21:19:07.203Z,99096.01
2018-07-19T21:21:35.930Z,99086.93
2018-07-19T21:24:04.749Z,99096.67
2018-07-19T21:26:33.767Z,99088.24
2018-07-19T21:29:02.018Z,99107.02
2018-07-19T21:31:30.319Z,99101.05
2018-07-19T21:33:58.891Z,99103.34
2018-07-19T21:36:27.971Z,99099.83
2018-07-19T21:38:56.907Z,99089.23
2018-07-19T21:41:26.728Z,99102.28
2018-07-19T21:43:54.981Z,99111.11
2018-07-19T21:46:23.860Z,99103.13
2018-07-19T21:48:52.519Z,99092.91
2018-07-19T21:51:21.924Z,99111.14
2018-07-19T21:53:50.454Z,99100.23
2018-07-19T21:56:18.695Z,99098.39
2018-07-19T21:58:47.197Z,99094.56
2018-07-19T22:01:15.470Z,99101.00
2018-07-19T22:03:46.704Z,99104.91
2018-07-19T22:06:15.098Z,99106.62
2018-07-19T22:08:43.315Z,99112.20
2018-07-19T22:11:12.067Z,99092.73
2018-07-19T22:13:40.763Z,99110.27
2018-07-19T22:16:09.220Z,99106.88
2018-07-19T22:18:38.150Z,99117.37
2018-07-19T22:21:08.755Z,99122.24
2018-07-19T22:23:40.737Z,99119.45
2018-07-19T22:26:12.247Z,99118.05
2018-07-19T22:28:42.725Z,99127.36
2018-07-19T22:31:11.257Z,99126.50
2018-07-19T22:33:40.669Z,99121.08
2018-07-19T22:36:09.832Z,99123.10
2018-07-19T22:38:38.900Z,99141.13
2018-07-19T22:41:08.030Z,99125.09
2018-07-19T22:43:36.118Z,99131.52
2018-07-19T22:46:05.062Z,99134.89
2018-07-19T22:48:33.655Z,99119.67
2018-07-19T22:51:02.480Z,99134.73
2018-07-19T22:53:31.097Z,99129.12
2018-07-19T22:55:59.555Z,99137.02
2018-07-19T22:58:27.883Z,99136.02
2018-07-19T23:00:56.334Z,99138.66
2018-07-19T23:03:24.668Z,99143.91
2018-07-19T23:05:54.283Z,99140.22
2018-07-19T23:08:22.599Z,99139.73
2018-07-19T23:10:50.613Z,99142.64
2018-07-19T23:13:19.151Z,99106.93
2018-07-19T23:15:47.465Z,99137.80
2018-07-19T23:18:16.430Z,99138.11
2018-07-19T23:20:45.082Z,99138.38
2018-07-19T23:23:13.707Z,99135.80
2018-07-19T23:25:41.763Z,99135.89
2018-07-19T23:28:10.548Z,99136.41
2018-07-19T23:30:39.364Z,99128.23
2018-07-19T23:33:07.528Z,99098.42
2018-07-19T23:35:41.231Z,99121.01
2018-07-19T23:38:13.116Z,99114.63
2018-07-19T23:40:43.788Z,99122.27
2018-07-19T23:43:18.973Z,99130.88
2018-07-19T23:45:54.073Z,99129.91
2018-07-19T23:48:22.517Z,99132.80
2018-07-19T23:50:50.582Z,99129.08
2018-07-19T23:53:18.951Z,99120.16
2018-07-19T23:55:47.053Z,99131.67
2018-07-19T23:58:15.865Z,99122.52
